Time;durP1;ratioP1;P1;durP2;ratioP2;P2;SDS_P1;SDS_P2;PMS_P1;PMS_P2;Temp;Humidity;BMP_temperature;BMP_pressure;BME280_temperature;BME280_humidity;BME280_pressure;Samples;Min_cycle;Max_cycle;Signal;HPM_P1;HPM_P2
2022/07/25 00:00:57;;;;;;;10.27;5.53;;;;;;;23.01;63.83;99785.81;31217929;28;20045;-67
2022/07/25 00:16:00;;;;;;;15.20;6.90;;;;;;;22.86;64.11;99802.00;31219626;28;20191;-67
2022/07/25 00:31:03;;;;;;;20.00;8.67;;;;;;;22.60;64.30;99786.47;31215129;28;20057;-68
2022/07/25 00:46:05;;;;;;;15.03;7.57;;;;;;;22.68;64.68;99781.91;31235525;28;20049;-67
2022/07/25 01:01:09;;;;;;;24.10;6.65;;;;;;;22.56;65.82;99772.16;31238888;28;20099;-67
2022/07/25 01:16:11;;;;;;;12.70;7.23;;;;;;;22.67;65.66;99769.34;31242728;28;20464;-67
2022/07/25 01:31:13;;;;;;;10.57;6.43;;;;;;;22.38;66.51;99761.66;31235934;28;20045;-67
2022/07/25 01:46:15;;;;;;;18.47;8.77;;;;;;;22.15;66.81;99763.00;31230001;28;20061;-68
2022/07/25 02:01:17;;;;;;;13.93;9.13;;;;;;;22.11;67.35;99752.94;31238420;28;20050;-69
2022/07/25 02:16:22;;;;;;;11.38;7.15;;;;;;;22.27;67.06;99742.34;31231921;28;20065;-66
2022/07/25 02:31:30;;;;;;;13.00;7.80;;;;;;;22.39;67.69;99743.81;31234366;28;20041;-67
2022/07/25 02:46:32;;;;;;;11.30;7.37;;;;;;;22.24;68.77;99737.81;31232178;28;20053;-66
2022/07/25 03:01:34;;;;;;;7.70;6.00;;;;;;;22.53;68.88;99747.53;31221742;28;20053;-67
2022/07/25 03:16:36;;;;;;;17.70;6.60;;;;;;;22.62;68.30;99745.22;31231273;28;20468;-68
2022/07/25 03:31:38;;;;;;;11.70;6.80;;;;;;;22.61;70.75;99740.97;31217675;28;20049;-70
2022/07/25 03:46:40;;;;;;;10.33;7.37;;;;;;;22.07;73.67;99746.91;31217857;28;20559;-68
2022/07/25 04:01:43;;;;;;;9.45;7.10;;;;;;;21.73;75.16;99750.97;31235742;28;20046;-68
2022/07/25 04:16:45;;;;;;;11.30;7.65;;;;;;;21.97;74.69;99751.16;31219725;28;20064;-67
2022/07/25 04:31:48;;;;;;;16.37;9.93;;;;;;;22.31;75.23;99760.16;31213682;28;20076;-68
2022/07/25 04:46:50;;;;;;;15.30;8.20;;;;;;;22.70;74.20;99750.97;31213703;28;20053;-67
2022/07/25 05:01:52;;;;;;;12.20;6.93;;;;;;;22.81;73.86;99741.91;31212081;28;20072;-68
2022/07/25 05:16:54;;;;;;;14.23;7.07;;;;;;;22.72;73.05;99753.97;31210000;28;20172;-67
2022/07/25 05:31:57;;;;;;;11.60;6.73;;;;;;;22.73;72.19;99728.56;31233844;28;20390;-66
2022/07/25 05:46:59;;;;;;;16.43;8.27;;;;;;;22.86;70.86;99732.81;31233196;28;20951;-68
2022/07/25 06:02:01;;;;;;;10.50;7.33;;;;;;;23.03;71.26;99733.47;31236497;28;20063;-67
2022/07/25 06:17:03;;;;;;;14.93;8.03;;;;;;;23.06;71.21;99724.88;31244409;28;20072;-67
2022/07/25 06:32:05;;;;;;;12.47;8.57;;;;;;;23.12;71.74;99700.69;31236333;28;20484;-68
2022/07/25 06:47:11;;;;;;;19.43;8.27;;;;;;;23.40;70.85;99683.84;31231625;28;20058;-66
2022/07/25 07:02:13;;;;;;;19.48;9.57;;;;;;;23.79;70.06;99688.31;31226437;28;20072;-68
2022/07/25 07:17:15;;;;;;;21.77;12.63;;;;;;;23.89;70.88;99683.91;31223375;28;20058;-68
2022/07/25 07:32:17;;;;;;;29.27;9.82;;;;;;;24.08;71.60;99692.28;31212435;28;20497;-75
2022/07/25 07:47:20;;;;;;;15.30;9.57;;;;;;;24.27;69.45;99692.34;31214389;28;20064;-68
2022/07/25 08:02:22;;;;;;;13.93;8.20;;;;;;;25.12;66.85;99696.22;31223661;28;20049;-69
2022/07/25 08:17:24;;;;;;;;;;;;;;;25.69;64.17;99710.72;31229723;28;20115;-77
2022/07/25 08:32:29;;;;;;;10.55;7.15;;;;;;;26.78;61.79;99705.53;31210961;28;20361;-74
2022/07/25 08:47:31;;;;;;;15.93;7.03;;;;;;;27.31;58.55;99710.91;31215319;28;20509;-77
2022/07/25 09:02:33;;;;;;;14.38;8.27;;;;;;;27.64;57.49;99697.44;31230170;28;20045;-75
2022/07/25 09:17:36;;;;;;;11.93;7.35;;;;;;;27.51;56.80;99690.63;31242583;28;20072;-73
2022/07/25 09:32:39;;;;;;;8.98;5.88;;;;;;;28.39;53.46;99682.47;31231278;28;20045;-75
2022/07/25 09:47:54;;;;;;;9.60;4.60;;;;;;;28.47;51.74;99674.88;31232338;28;20045;-75
2022/07/25 10:03:34;;;;;;;3.78;3.30;;;;;;;28.74;50.11;99683.72;31239994;28;20053;-68
2022/07/25 10:18:53;;;;;;;4.95;3.95;;;;;;;28.15;53.01;99689.97;31223378;28;20053;-68
2022/07/25 10:34:29;;;;;;;4.25;3.85;;;;;;;27.20;55.42;99704.84;31246045;28;20060;-68
2022/07/25 10:49:36;;;;;;;6.65;4.80;;;;;;;27.00;56.58;99697.97;31216296;28;20073;-69
2022/07/25 11:04:40;;;;;;;7.40;5.32;;;;;;;27.97;53.21;99690.97;31217403;28;20080;-75
2022/07/25 11:19:44;;;;;;;9.48;5.50;;;;;;;28.28;53.86;99657.69;31243807;28;20064;-73
2022/07/25 11:34:49;;;;;;;27.70;19.67;;;;;;;28.72;51.01;99655.59;31229586;28;20057;-66
2022/07/25 11:49:53;;;;;;;8.73;5.75;;;;;;;27.50;54.64;99638.97;31232649;28;20049;-66
2022/07/25 12:04:58;;;;;;;9.82;6.28;;;;;;;26.74;60.30;99612.47;31224005;28;20060;-65
2022/07/25 12:20:00;;;;;;;6.65;4.65;;;;;;;26.52;58.78;99588.69;31229950;28;20049;-67
2022/07/25 12:35:05;;;;;;;7.05;5.88;;;;;;;27.12;59.99;99610.09;31224265;28;20077;-80
2022/07/25 12:50:07;;;;;;;8.13;5.28;;;;;;;26.88;58.52;99618.75;31245641;28;20041;-76
2022/07/25 13:05:09;;;;;;;9.38;5.68;;;;;;;26.41;60.88;99627.94;31240518;28;20057;-77
2022/07/25 13:20:12;;;;;;;4.28;3.38;;;;;;;25.95;61.93;99632.91;31245596;28;20048;-67
2022/07/25 13:35:15;;;;;;;7.60;2.70;;;;;;;25.74;60.32;99634.84;31257257;28;20049;-66
2022/07/25 13:50:21;;;;;;;8.27;4.80;;;;;;;26.27;60.33;99612.50;31262823;28;20522;-68
2022/07/25 14:05:23;;;;;;;6.28;4.55;;;;;;;25.91;62.33;99599.09;31242117;28;20050;-68
2022/07/25 14:20:25;;;;;;;6.32;4.80;;;;;;;25.87;63.22;99604.25;31234932;28;20053;-75
2022/07/25 14:35:27;;;;;;;10.52;5.07;;;;;;;25.92;64.89;99600.59;31235489;28;20481;-73
2022/07/25 14:50:33;;;;;;;6.57;5.30;;;;;;;25.24;71.01;99594.78;31246619;28;20057;-75
2022/07/25 15:05:37;;;;;;;6.20;4.82;;;;;;;25.51;69.30;99589.97;31237429;28;20056;-67
2022/07/25 15:20:39;;;;;;;6.28;4.50;;;;;;;25.72;68.48;99596.44;31227310;28;20049;-67
2022/07/25 15:35:43;;;;;;;8.68;4.97;;;;;;;25.79;69.33;99603.38;31233385;28;20398;-68
2022/07/25 15:50:48;;;;;;;3.92;2.97;;;;;;;25.56;68.62;99613.41;31232238;28;20409;-68
2022/07/25 16:05:52;;;;;;;3.63;2.80;;;;;;;25.31;68.38;99605.25;31232617;28;20061;-78
2022/07/25 16:20:57;;;;;;;7.40;3.50;;;;;;;25.00;66.45;99626.25;31242827;28;20144;-74
2022/07/25 16:36:00;;;;;;;5.85;2.10;;;;;;;24.77;65.35;99631.38;31217880;28;20120;-67
2022/07/25 16:51:02;;;;;;;;;;;;;;;24.42;66.35;99623.28;31227771;28;20057;-65
2022/07/25 17:06:05;;;;;;;6.50;2.92;;;;;;;24.10;67.44;99618.38;31230253;28;19947;-67
2022/07/25 17:21:08;;;;;;;4.65;3.17;;;;;;;23.80;68.49;99635.13;31236881;28;20073;-67
2022/07/25 17:36:10;;;;;;;5.88;4.38;;;;;;;23.48;70.14;99650.78;31254463;28;20045;-68
2022/07/25 17:51:12;;;;;;;6.67;4.17;;;;;;;23.24;71.37;99670.88;31266146;28;20052;-67
2022/07/25 18:06:14;;;;;;;6.97;4.57;;;;;;;23.02;72.79;99676.59;31263366;28;20049;-67
2022/07/25 18:21:16;;;;;;;12.10;7.60;;;;;;;22.90;73.98;99686.25;31245546;28;20140;-66
2022/07/25 18:36:19;;;;;;;11.67;5.90;;;;;;;22.72;75.16;99699.38;31246140;28;20045;-66
2022/07/25 18:51:22;;;;;;;8.80;5.57;;;;;;;22.53;77.19;99709.56;31242697;28;20081;-67
2022/07/25 19:06:24;;;;;;;10.13;5.67;;;;;;;22.41;78.27;99699.81;31216913;28;20067;-69
2022/07/25 19:21:26;;;;;;;9.13;6.47;;;;;;;22.26;79.40;99696.59;31222776;28;20052;-69
2022/07/25 19:36:28;;;;;;;10.20;6.17;;;;;;;22.07;81.43;99699.94;31242455;28;20052;-69
2022/07/25 19:51:31;;;;;;;16.63;10.00;;;;;;;22.06;81.90;99700.44;31230191;28;20050;-68
2022/07/25 20:06:34;;;;;;;8.13;6.18;;;;;;;21.95;82.84;99705.97;31226233;28;20049;-68
2022/07/25 20:21:37;;;;;;;;;;;;;;;21.75;85.61;99704.22;31203699;28;20115;-68
2022/07/25 20:36:39;;;;;;;8.18;5.32;;;;;;;21.56;84.41;99694.97;31212077;28;19921;-68
2022/07/25 20:51:41;;;;;;;7.50;5.40;;;;;;;21.46;84.74;99693.72;31222272;28;20041;-71
2022/07/25 21:06:43;;;;;;;8.57;5.75;;;;;;;21.35;85.07;99686.19;31226621;28;20068;-73
2022/07/25 21:21:47;;;;;;;7.93;5.60;;;;;;;21.17;85.43;99678.38;31222978;28;20056;-72
2022/07/25 21:36:49;;;;;;;8.90;4.87;;;;;;;21.01;86.93;99679.88;31236897;28;20041;-72
2022/07/25 21:51:51;;;;;;;7.47;5.22;;;;;;;20.92;87.32;99677.34;31235316;28;20523;-71
2022/07/25 22:06:54;;;;;;;9.93;6.23;;;;;;;20.79;88.18;99671.59;31231505;28;20103;-72
2022/07/25 22:21:56;;;;;;;8.02;5.70;;;;;;;20.60;89.50;99688.56;31225898;28;20532;-70
2022/07/25 22:36:58;;;;;;;7.95;5.80;;;;;;;20.59;89.91;99700.09;31227629;28;20405;-72
2022/07/25 22:52:00;;;;;;;8.27;6.05;;;;;;;20.43;90.74;99685.00;31225593;28;20333;-71
2022/07/25 23:07:02;;;;;;;7.75;5.82;;;;;;;20.28;91.26;99678.91;31225812;28;20049;-71
2022/07/25 23:22:04;;;;;;;8.05;5.57;;;;;;;20.02;92.73;99671.53;31222230;28;20050;-71
2022/07/25 23:37:06;;;;;;;13.10;7.55;;;;;;;19.77;95.18;99658.63;31215883;28;20118;-71
2022/07/25 23:52:08;;;;;;;11.57;6.03;;;;;;;19.61;96.08;99660.00;31217110;28;20068;-72
